x

9415141 - Davis Point, San Pablo Bay, Ca (dpxc1) Weather Station

8:54am - Sat 28th Mar 2015 All times are PDT. -7 hours from GMT.

  • Wind
    7mph, 8mph gusts
  • Air Temp 57°f
  • Sea Pressure 1021.9mb
  • 9415141 - Davis Point, San Pablo Bay, Ca
  • 9415141 - Davis Point, San Pablo Bay, Ca

More Historic Weather Station data

Upgrade to MSW Pro to gain access to the past 30 days of data for over 8000 Wavebouys and Weather Stations around the globe.

Join Pro

Comparision Forecast

View Surf forecast
   
Sat 03/28 8:54am 7 8 mph 1021.9mb 57f
8:48am 7 9 mph 1022mb 56f
8:42am 7 8 mph 1021.9mb 56f
8:36am 6 7 mph 1021.9mb 56f
8:30am 6 7 mph 1021.8mb 56f
8:24am 6 7 mph 1021.8mb 56f
8:18am 6 7 mph 1021.7mb 57f
8:12am 6 7 mph 1021.5mb 56f
8:06am 6 7 mph 1021.5mb 56f
8:00am 5 7 mph 1021.5mb 56f
7:54am 6 8 mph 1021.5mb 56f
7:48am 6 7 mph 1021.5mb 56f
7:42am 5 6 mph 1021.5mb 56f
7:36am 5 6 mph 1021.4mb 55f
7:30am 5 7 mph 1021.4mb 56f
7:24am 6 7 mph 1021.3mb 56f
7:18am 6 7 mph 1021.1mb 56f
7:12am 6 7 mph 1021.1mb 56f
7:06am 5 7 mph 1021.1mb 56f
7:00am 5 6 mph 1021.1mb 56f
6:54am 5 6 mph 1021.1mb 56f
6:48am 6 7 mph 1021mb 56f
6:42am 5 7 mph 1021mb 56f
6:36am 5 6 mph 1021mb 56f
6:30am 3 6 mph 1021mb 56f
6:24am 5 9 mph 1020.9mb 56f
6:18am 6 8 mph 1020.9mb 56f
6:12am 6 7 mph 1020.7mb 56f
6:06am 6 7 mph 1020.7mb 56f
6:00am 6 8 mph 1020.7mb 56f
5:54am 6 7 mph 1020.7mb 56f
5:48am 6 7 mph 1020.7mb 56f
5:42am 5 8 mph 1020.7mb 57f
5:36am 6 8 mph 1020.6mb 56f
5:30am 5 8 mph 1020.6mb 57f
5:24am 7 9 mph 1020.5mb 57f
5:18am 7 9 mph 1020.5mb 57f
5:12am 7 8 mph 1020.5mb 57f
5:06am 6 8 mph 1020.4mb 58f
5:00am 7 10 mph 1020.5mb 58f
4:54am 7 10 mph 1020.4mb 58f
4:48am 9 10 mph 1020.3mb 58f
4:42am 7 10 mph 1020.2mb 58f
4:36am 8 11 mph 1020.2mb 58f
4:30am 7 9 mph 1020.2mb 58f
4:24am 8 11 mph 1020.2mb 58f
4:18am 8 13 mph 1020.3mb 58f
4:12am 7 11 mph 1020.3mb 58f
4:06am 8 11 mph 1020.3mb 58f
4:00am 9 13 mph 1020.4mb 58f
3:54am 10 13 mph 1020.4mb 58f
3:48am 7 10 mph 1020.5mb 58f
3:42am 6 8 mph 1020.5mb 58f
3:36am 8 10 mph 1020.5mb 58f
3:30am 8 10 mph 1020.5mb 58f
3:24am 7 11 mph 1020.5mb 58f
3:18am 8 11 mph 1020.4mb 58f
3:12am 7 9 mph 1020.6mb 58f
3:06am 8 10 mph 1020.6mb 58f
3:00am 7 11 mph 1020.7mb 58f
2:54am 8 11 mph 1020.5mb 58f
2:48am 9 13 mph 1020.5mb 58f
2:42am 10 14 mph 1020.4mb 58f
2:36am 9 11 mph 1020.4mb 58f
2:30am 9 11 mph 1020.4mb 58f
2:24am 7 10 mph 1020.5mb 58f
2:18am 8 10 mph 1020.6mb 58f
2:12am 8 10 mph 1020.6mb 58f
2:06am 8 11 mph 1020.7mb 58f
2:00am 9 11 mph 1020.7mb 58f
1:54am 8 13 mph 1020.8mb 59f
1:48am 8 11 mph 1020.8mb 58f
1:42am 8 11 mph 1020.8mb 58f
1:36am 8 11 mph 1020.8mb 58f
1:30am 9 13 mph 1020.9mb 58f
1:24am 8 13 mph 1020.9mb 59f
1:18am 10 14 mph 1020.9mb 58f
1:12am 9 13 mph 1020.8mb 59f
1:06am 9 11 mph 1020.8mb 59f
1:00am 10 14 mph 1020.7mb 59f
12:54am 10 14 mph 1020.7mb 59f
12:48am 11 16 mph 1020.7mb 59f
12:42am 11 14 mph 1020.8mb 59f
12:36am 10 14 mph 1020.8mb 60f
12:30am 10 16 mph 1020.9mb 60f
12:24am 10 14 mph 1021mb 60f
12:18am 11 17 mph 1021.1mb 60f
12:12am 14 18 mph 1021mb 60f
12:06am 14 18 mph 1021mb 60f
12:00am 13 17 mph 1020.9mb 60f
Fri 03/27 11:54pm 13 17 mph 1021mb 60f
11:48pm 14 17 mph 1020.9mb 60f
11:42pm 15 20 mph 1020.8mb 60f
11:36pm 16 21 mph 1020.8mb 61f
11:30pm 16 20 mph 1020.9mb 61f
11:24pm 13 20 mph 1020.9mb 61f
11:18pm 16 20 mph 1020.8mb 61f
11:12pm 14 18 mph 1020.9mb 61f
11:06pm 13 16 mph 1020.9mb 61f
11:00pm 11 15 mph 1020.9mb 61f
10:54pm 10 16 mph 1020.8mb 61f
10:48pm 10 14 mph 1020.7mb 61f
10:42pm 10 15 mph 1020.7mb 60f
10:36pm 10 15 mph 1020.7mb 60f
10:30pm 10 14 mph 1020.7mb 60f
10:24pm 11 15 mph 1020.7mb 60f
10:18pm 11 15 mph 1020.7mb 60f
10:12pm 11 15 mph 1020.7mb 60f
10:06pm 13 16 mph 1020.7mb 60f
10:00pm 11 16 mph 1020.6mb 60f
9:54pm 14 21 mph 1020.5mb 60f
9:48pm 15 18 mph 1020.5mb 59f
9:42pm 10 14 mph 1020.6mb 60f
9:36pm 10 13 mph 1020.5mb 60f
9:30pm 8 11 mph 1020.5mb 60f
9:24pm 6 8 mph 1020.6mb 59f
9:18pm 7 9 mph 1020.4mb 60f
9:12pm 8 11 mph 1020.3mb 59f
9:06pm 11 13 mph 1020.2mb 59f
9:00pm 11 15 mph 1020.1mb 60f
8:54pm 11 16 mph 1020mb 59f
8:48pm 13 16 mph 1020mb 59f
8:42pm 13 14 mph 1020mb 59f
8:36pm 9 14 mph 1020.1mb 60f
8:30pm 13 16 mph 1020mb 60f
8:24pm 14 16 mph 1019.9mb 60f
8:18pm 11 15 mph 1019.7mb 60f
8:12pm 10 13 mph 1019.7mb 60f
8:06pm 13 15 mph 1019.6mb 60f
8:00pm 10 14 mph 1019.5mb 60f
7:54pm 14 16 mph 1019.5mb 61f
7:48pm 11 15 mph 1019.5mb 61f
7:42pm 11 16 mph 1019.5mb 61f
7:36pm 10 14 mph 1019.3mb 62f
7:30pm 11 15 mph 1019.3mb 61f
7:24pm 10 14 mph 1019.3mb 62f
7:18pm 10 15 mph 1019.4mb 62f
7:12pm 11 17 mph 1019.4mb 62f
7:06pm 11 16 mph 1019.4mb 63f
7:00pm 14 16 mph 1019.3mb 63f
6:54pm 13 15 mph 1019.3mb 64f
6:48pm 10 14 mph 1019.2mb 64f
6:42pm 10 16 mph 1019.2mb 64f
6:36pm 11 16 mph 1019.1mb 64f
6:30pm 11 16 mph 1019.1mb 64f
6:24pm 11 15 mph 1019.1mb 65f
6:18pm 11 16 mph 1019mb 65f
6:12pm 10 15 mph 1018.9mb 65f
6:06pm 9 11 mph 1019mb 65f
6:00pm 9 13 mph 1019mb 65f
5:54pm 11 14 mph 1018.9mb 65f
5:48pm 10 14 mph 1018.9mb 65f
5:42pm 10 14 mph 1018.9mb 65f
5:36pm 10 14 mph 1019mb 66f
5:30pm 10 14 mph 1019mb 66f
5:24pm 10 14 mph 1019mb 66f
5:18pm 10 14 mph 1018.9mb 67f
5:12pm 9 13 mph 1018.9mb 66f
5:06pm 10 13 mph 1018.9mb 66f
5:00pm 9 13 mph 1018.9mb 66f
4:54pm 8 13 mph 1018.9mb 66f
4:48pm 8 13 mph 1018.9mb 66f
4:42pm 8 10 mph 1019mb 66f
4:36pm 8 11 mph 1019mb 66f
4:30pm 8 11 mph 1019.1mb 67f
4:24pm 6 8 mph 1019.1mb 67f
4:18pm 6 9 mph 1019.2mb 67f
4:12pm 7 11 mph 1019.2mb 67f
4:06pm 8 10 mph 1019.2mb 66f
4:00pm 8 10 mph 1019.2mb 67f
3:54pm 7 10 mph 1019.3mb 67f
3:48pm 7 10 mph 1019.3mb 66f
3:42pm 7 10 mph 1019.4mb 67f
3:36pm 6 13 mph 1019.5mb 66f
3:30pm 8 13 mph 1019.5mb 65f
3:24pm 8 11 mph 1019.5mb 66f
3:18pm 8 11 mph 1019.5mb 65f
3:12pm 8 10 mph 1019.6mb 65f
3:06pm 6 11 mph 1019.7mb 65f
3:00pm 7 10 mph 1019.8mb 65f
2:54pm 9 11 mph 1019.8mb 64f
2:48pm 10 13 mph 1019.8mb 64f
2:42pm 10 14 mph 1019.9mb 64f
2:36pm 11 14 mph 1020mb 64f
2:30pm 10 13 mph 1020mb 64f
2:12pm 9 13 mph 1020.2mb 63f
2:06pm 8 10 mph 1020.2mb 63f
2:00pm 8 10 mph 1020.3mb 63f
1:54pm 7 9 mph 1020.3mb 63f
1:48pm 7 10 mph 1020.4mb 63f
1:42pm 8 10 mph 1020.5mb 63f
1:36pm 7 10 mph 1020.5mb 63f
1:30pm 8 10 mph 1020.6mb 62f
1:24pm 8 11 mph 1020.7mb 62f
1:18pm 7 10 mph 1020.8mb 62f
1:12pm 8 9 mph 1020.8mb 62f
1:06pm 8 10 mph 1020.9mb 62f
1:00pm 7 9 mph 1020.9mb 62f
12:54pm 7 9 mph 1021mb 62f
12:48pm 6 9 mph 1021mb 61f
12:42pm 7 9 mph 1021mb 61f
12:36pm 6 8 mph 1021.1mb 61f
12:30pm 6 8 mph 1021.2mb 62f
12:24pm 6 9 mph 1021.2mb 62f
12:18pm 7 9 mph 1021.3mb 60f
12:12pm 8 10 mph 1021.4mb 60f
12:06pm 8 11 mph 1021.5mb 60f
12:00pm 8 11 mph 1021.5mb 60f
11:54am 8 11 mph 1021.4mb 60f
11:48am 8 11 mph 1021.4mb 60f
11:42am 8 10 mph 1021.4mb 59f
11:36am 8 10 mph 1021.4mb 59f
11:30am 9 11 mph 1021.4mb 59f
11:24am 7 9 mph 1021.4mb 60f
11:18am 8 10 mph 1021.4mb 59f
11:12am 7 10 mph 1021.4mb 59f
11:06am 7 9 mph 1021.4mb 59f
11:00am 7 9 mph 1021.4mb 59f
10:54am 7 9 mph 1021.3mb 58f
10:48am 6 8 mph 1021.3mb 58f
10:42am 7 9 mph 1021.4mb 59f
10:36am 8 11 mph 1021.3mb 58f
10:30am 8 11 mph 1021.3mb 57f
10:24am 7 13 mph 1021.3mb 57f
10:18am 7 11 mph 1021.3mb 57f
10:12am 8 11 mph 1021.2mb 57f
10:06am 8 13 mph 1021.2mb 57f
10:00am 8 11 mph 1021.1mb 58f
9:54am 7 10 mph 1021.1mb 58f
9:48am 8 13 mph 1021.1mb 57f
9:42am 8 11 mph 1021mb 56f
9:36am 8 11 mph 1020.9mb 57f
9:30am 9 13 mph 1020.8mb 56f
9:24am 8 11 mph 1020.7mb 55f
9:18am 8 11 mph 1020.6mb 55f
9:12am 8 11 mph 1020.6mb 55f
9:06am 8 11 mph 1020.5mb 55f
9:00am 8 13 mph 1020.5mb 54f
8:54am 8 11 mph 1020.4mb 54f
8:48am 7 10 mph 1020.3mb 54f
8:42am 8 11 mph 1020.2mb 54f
8:36am 7 9 mph 1020.1mb 55f
8:30am 6 9 mph 1020.1mb 55f
8:24am 5 7 mph 1020.1mb 55f
8:18am 5 7 mph 1020mb 55f
8:12am 5 7 mph 1020mb 55f
8:06am 5 8 mph 1020mb 55f
8:00am 6 8 mph 1019.9mb 55f
7:54am 5 6 mph 1019.9mb 55f
7:48am 6 8 mph 1019.9mb 55f
7:42am 6 8 mph 1019.8mb 55f
7:36am 6 7 mph 1019.6mb 55f
7:30am 6
mph
1019.6mb 55f
7:24am 3 6 mph 1019.6mb 55f
7:18am 6 7 mph 1019.5mb 55f
7:12am 5 8 mph 1019.4mb 55f
7:06am 5 7 mph 1019.4mb 55f
7:00am 6 8 mph 1019.3mb 55f
6:54am 5 7 mph 1019.3mb 55f
6:48am 6 9 mph 1019.2mb 55f
6:42am 6 9 mph 1019.2mb 55f
6:36am 7 9 mph 1019.1mb 56f
6:30am 7 9 mph 1019.1mb 56f
6:24am 7 8 mph 1019.2mb 56f
6:18am 7 9 mph 1019.1mb 56f
6:12am 7 9 mph 1019.1mb 56f
6:06am 7 9 mph 1019mb 57f
6:00am 7 9 mph 1018.9mb 57f
5:54am 7 8 mph 1018.9mb 57f
5:48am 7 8 mph 1018.9mb 57f
5:42am 7 9 mph 1018.9mb 57f
5:36am 7 9 mph 1018.8mb 57f
5:30am 7 9 mph 1018.9mb 57f
5:24am 6 9 mph 1018.9mb 57f
5:18am 7 10 mph 1018.8mb 57f
5:12am 7 9 mph 1018.8mb 57f
5:06am 7 9 mph 1018.7mb 57f
5:00am 9 10 mph 1018.7mb 56f
4:54am 7 10 mph 1018.8mb 57f
4:48am 8 10 mph 1018.8mb 56f
4:42am 7 9 mph 1018.8mb 56f
4:36am 7 10 mph 1018.8mb 56f
4:30am 7 9 mph 1018.8mb 57f
4:24am 7 8 mph 1018.7mb 57f
4:18am 5 7 mph 1018.7mb 58f
4:12am 5 6 mph 1018.7mb 58f
4:06am 6 7 mph 1018.6mb 58f
4:00am 6 7 mph 1018.6mb 59f
3:54am 6 8 mph 1018.6mb 59f
3:48am 7 9 mph 1018.6mb 59f
3:42am 5 6 mph 1018.6mb 59f
3:36am 3 5 mph 1018.5mb 60f
3:30am 1 2 mph 1018.5mb 59f
3:24am 2
mph
1018.5mb 59f
3:18am 1 2 mph 1018.6mb 59f
3:12am 2 3 mph 1018.6mb 59f
3:06am 1 2 mph 1018.7mb 60f
3:00am 2
mph
1018.8mb 61f
2:54am 2
mph
1018.8mb 60f
2:48am  -  2 mph - 61f
2:42am  -  1 mph - 60f
2:36am  -  1 mph - 60f
2:30am 1 3 mph 1018.9mb 60f
2:24am 2 3 mph 1018.9mb 60f
2:18am 2 3 mph 1018.9mb 60f
2:12am 2 3 mph 1019mb 60f
2:06am 1 3 mph 1019mb 61f
2:00am 2
mph
1019mb -
1:54am 1 3 mph 1019mb -
1:48am 2 3 mph 1019mb 61f
1:42am 3
mph
1019mb 60f
1:36am 3
mph
1019mb 61f
1:30am 2 5 mph 1019mb 62f
1:24am 2 3 mph 1019.1mb 62f
1:18am 2 3 mph 1019.1mb 62f
1:06am 2
mph
1019.1mb 62f
1:00am 1 2 mph 1019.1mb 62f
12:54am 1 2 mph 1019.1mb 62f
12:48am 1 2 mph 1019.1mb 62f
12:42am  -  2 mph 1019mb 64f
12:36am 1 2 mph 1019mb 64f
12:30am 2 3 mph 1019mb 64f
12:24am 2 3 mph 1019mb 63f
12:18am 2
mph
1019mb 63f
12:12am 2 5 mph 1019mb 64f
12:06am 3 5 mph 1019mb 64f
12:00am 3
mph
1019mb 64f
Thu 03/26 11:54pm 2 3 mph 1019mb 63f
11:48pm 2 3 mph 1018.9mb 64f
11:42pm  -  1 mph 1018.9mb 64f
11:36pm  -  2 mph 1018.8mb 65f
11:30pm  -  1 mph 1018.9mb 65f
11:24pm 2 3 mph 1018.9mb 65f
11:18pm 1 2 mph 1018.9mb 66f
11:12pm 2 5 mph 1018.9mb 66f
11:06pm 5 6 mph 1019mb 68f
11:00pm 6 7 mph 1019mb 67f
10:54pm 6 8 mph 1019mb 67f
10:48pm 6 8 mph 1018.9mb 67f
10:42pm 7 8 mph 1018.9mb 67f
10:36pm 6
mph
1018.9mb 67f
10:30pm 5 6 mph 1018.9mb 67f
10:24pm 5 6 mph 1018.8mb 68f
10:18pm 6 8 mph 1018.8mb 68f
10:12pm 6 7 mph 1018.7mb 68f
10:06pm 6 7 mph 1018.7mb 68f
10:00pm 6 8 mph 1018.7mb 68f
9:54pm 7 8 mph 1018.6mb 67f
9:48pm 7 8 mph 1018.6mb 68f
9:42pm 5 6 mph 1018.6mb 67f
9:36pm 3 5 mph 1018.6mb 67f
9:30pm 2 3 mph 1018.5mb 67f
9:24pm 3 5 mph 1018.5mb 68f
9:18pm 2 3 mph 1018.5mb 68f
9:12pm 2 3 mph 1018.4mb 68f
9:06pm 2 3 mph 1018.4mb 68f
9:00pm 1 2 mph 1018.3mb 68f
8:54pm 1 5 mph 1018.3mb 68f
8:48pm 2 5 mph 1018.2mb 68f
8:42pm 2 5 mph 1018.2mb 68f
8:36pm 1 2 mph 1018.1mb 67f
8:30pm 1 3 mph 1018.1mb 68f
8:24pm 3 7 mph 1018mb 68f
8:18pm 7 8 mph 1017.9mb 67f
8:12pm 8
mph
1017.9mb 69f
8:06pm 7 8 mph 1017.8mb 70f
8:00pm 6
mph
1017.7mb 71f
7:54pm  -  2 mph 1017.7mb 73f
7:48pm 1 2 mph 1017.6mb 74f
7:42pm 2
mph
1017.5mb 73f
7:36pm 1 2 mph 1017.5mb 72f
7:30pm 1 2 mph 1017.4mb 72f
7:24pm  -  3 mph 1017.4mb 71f
7:18pm 1 2 mph 1017.4mb 71f
7:12pm 2 3 mph 1017.3mb 73f
7:06pm 3 5 mph 1017.4mb 75f
7:00pm 6 7 mph 1017.4mb 73f
6:54pm 6 7 mph 1017.3mb 76f
6:48pm 6 7 mph 1017.3mb 77f
6:42pm 6 7 mph 1017.3mb 76f
6:36pm 6 7 mph 1017.3mb 78f
6:30pm 6 7 mph 1017.3mb 76f
6:24pm 6 7 mph 1017.3mb 75f
6:18pm 7
mph
1017.4mb 76f
6:12pm 7 8 mph 1017.4mb 76f
6:06pm 7 8 mph 1017.4mb 78f
6:00pm 8
mph
1017.4mb 78f
5:54pm 7 8 mph 1017.5mb 78f
5:48pm 8 9 mph 1017.5mb 78f
5:42pm 7 8 mph 1017.5mb 77f
5:36pm 7 8 mph 1017.5mb 78f
5:30pm 7 8 mph 1017.6mb 77f
5:24pm 7 9 mph 1017.6mb 78f
5:18pm 8
mph
1017.6mb 78f
5:12pm 7 8 mph 1017.7mb 78f
5:06pm 8
mph
1017.7mb 78f
5:00pm 8
mph
1017.8mb 78f
4:54pm 8 9 mph 1017.8mb 78f
4:48pm 8
mph
1017.8mb 78f
4:42pm 8 9 mph 1017.8mb 78f
4:36pm 9 10 mph 1017.8mb 77f
4:30pm 10
mph
1017.9mb 77f
4:24pm 8 10 mph 1017.9mb 77f
4:18pm 9 10 mph 1018mb 77f
4:12pm 9 11 mph 1018mb 77f
4:06pm 10 11 mph 1018mb 77f
4:00pm 10 13 mph 1018mb 76f
3:54pm 11 13 mph 1018mb 76f
3:48pm 11 14 mph 1018mb 76f
3:42pm 11 13 mph 1018.1mb 76f
3:36pm 11 14 mph 1018.2mb 76f
3:30pm 9 13 mph 1018.3mb 76f
3:24pm 10 13 mph 1018.4mb 76f
3:18pm 8 13 mph 1018.4mb 76f
3:12pm 11 13 mph 1018.5mb 75f
3:06pm 10 11 mph 1018.6mb 76f
3:00pm 9 11 mph 1018.7mb 76f
2:54pm 10 13 mph 1018.7mb 75f
2:48pm 10 13 mph 1018.8mb 74f
2:42pm 9 14 mph 1018.9mb 75f
2:36pm 10 13 mph 1018.9mb 75f
2:30pm 10 13 mph 1019mb 75f
2:24pm 8 13 mph 1019.1mb 74f
2:18pm 11 14 mph 1019.2mb 74f
2:12pm 13 15 mph 1019.4mb 74f
2:06pm 13 15 mph 1019.5mb 74f
2:00pm 11 14 mph 1019.6mb 74f
1:54pm 11 14 mph 1019.7mb 74f
1:48pm 10 13 mph 1019.8mb 73f
1:42pm 13 14 mph 1019.9mb 73f
1:36pm 11 14 mph 1019.9mb 73f
1:30pm 11 13 mph 1020mb 73f
1:24pm 11 14 mph 1020.1mb 73f
1:18pm 11 14 mph 1020.2mb 73f
1:12pm 13 15 mph 1020.2mb 73f
1:06pm 10 13 mph 1020.3mb 71f
1:00pm 13 14 mph 1020.3mb 72f
12:54pm 11 13 mph 1020.4mb 71f
12:48pm 10 14 mph 1020.5mb 71f
12:42pm 11 14 mph 1020.5mb 70f
12:36pm 10 11 mph 1020.6mb 70f
12:30pm 11
mph
1020.7mb 70f
12:24pm 9 10 mph 1020.7mb 69f
12:18pm 9 10 mph 1020.9mb 69f
12:12pm 8 9 mph 1021mb 68f
12:06pm 8 9 mph 1021.1mb 68f
12:00pm 9 11 mph 1021.1mb 68f
11:54am 8 10 mph 1021.2mb 68f
11:48am 8 9 mph 1021.2mb 67f
11:42am 8 9 mph 1021.3mb 67f
11:36am 8 10 mph 1021.4mb 67f
11:30am 7 8 mph 1021.5mb 67f
11:24am 8 11 mph 1021.5mb 66f
11:18am 11 13 mph 1021.5mb 65f
11:12am 10 14 mph 1021.5mb 66f
11:06am 13 15 mph 1021.5mb 66f
11:00am 13 14 mph 1021.5mb 65f
10:54am 14 15 mph 1021.5mb 65f
10:48am 13 14 mph 1021.6mb 65f
10:42am 11 13 mph 1021.6mb 64f
10:36am 11 13 mph 1021.6mb 64f
10:30am 9 10 mph 1021.7mb 63f
10:24am 5 6 mph 1021.8mb 62f
10:18am 3 5 mph 1021.8mb 62f
10:12am 2 3 mph 1021.9mb 63f
10:06am  -  2 mph 1021.9mb 62f
10:00am 2 3 mph 1021.9mb 61f
9:54am 2 3 mph 1021.9mb 60f
9:48am 2 3 mph 1021.8mb 61f
9:42am 2 3 mph 1021.8mb 62f
9:36am 2 3 mph 1021.8mb 61f
9:30am 2
mph
1021.7mb 61f
9:24am 2 3 mph 1021.7mb 60f
9:18am 2
mph
1021.6mb 60f
9:12am  -  1 mph 1021.6mb 61f
9:06am 1
mph
1021.5mb 61f
9:00am  -  1 mph 1021.5mb 62f
8:54am  -  1 mph 1021.5mb 61f
8:48am  -  1 mph 1021.4mb 60f
8:42am 1 2 mph 1021.5mb 60f
8:36am 1 2 mph 1021.4mb 60f
8:30am  -  1 mph 1021.4mb 61f
8:24am  -  1 mph 1021.3mb 61f
8:18am  -  2 mph 1021.3mb 59f
8:12am  -  2 mph 1021.3mb 59f
8:06am 1 2 mph 1021.3mb 58f
8:00am 1 2 mph 1021.3mb 58f
7:54am  -  2 mph 1021.2mb 58f
7:48am 1 2 mph 1021.2mb 58f
7:42am 1 2 mph 1021.2mb 58f
7:36am 1 3 mph 1021.1mb 56f
7:30am 3 5 mph 1021mb 56f
7:24am 2 3 mph 1021mb 56f
7:18am 3
mph
1020.9mb 55f
7:12am 3
mph
1020.9mb 55f
7:06am 2 3 mph 1020.8mb 56f
7:00am 2 5 mph 1020.8mb 56f
6:54am 2 3 mph 1020.8mb 56f
6:48am 1 2 mph 1020.7mb 56f
6:42am 2
mph
1020.7mb 56f
6:36am 2 3 mph 1020.7mb 56f
6:30am 2 3 mph 1020.7mb 56f
6:24am 2 3 mph 1020.7mb 56f
6:18am 2 3 mph 1020.7mb 56f
6:12am 2 3 mph 1020.6mb 56f
6:06am 3
mph
1020.6mb 56f
6:00am 2 3 mph 1020.6mb 56f
5:54am 2 3 mph 1020.5mb 56f
5:48am 2 5 mph 1020.5mb 56f
5:42am 3 5 mph 1020.4mb 56f
5:36am 3 5 mph 1020.4mb 56f
5:30am 3 5 mph 1020.4mb 56f
5:24am 3 5 mph 1020.4mb 56f
5:18am 3 5 mph 1020.3mb 56f
5:12am 5 6 mph 1020.3mb 56f
5:06am 5
mph
1020.3mb 56f
5:00am 3 5 mph 1020.3mb 56f
4:54am 3 5 mph 1020.3mb 56f
4:48am 3 5 mph 1020.4mb 56f
4:42am 3 5 mph 1020.4mb 56f
4:36am 2 3 mph 1020.4mb 56f
4:30am 3 6 mph 1020.4mb 56f
4:24am 3 5 mph 1020.4mb 56f
4:18am 5 6 mph 1020.4mb 56f
4:12am 5 6 mph 1020.4mb 56f
4:06am 5 6 mph 1020.4mb 56f
4:00am 5 6 mph 1020.4mb 56f
3:54am 5 6 mph 1020.4mb 56f
3:48am 5 6 mph 1020.4mb 56f
3:42am 5 7 mph 1020.5mb 56f
3:36am 6 7 mph 1020.5mb 56f
3:30am 5 6 mph 1020.4mb 57f
3:24am 5 7 mph 1020.4mb 57f
3:18am 6 7 mph 1020.4mb 57f
3:12am 6 7 mph 1020.5mb 56f
3:06am 6 7 mph 1020.5mb 56f
3:00am  -  mph 1020.5mb 57f
2:54am  -  mph 1020.6mb 57f
2:48am  -  mph 1020.6mb -
2:42am 3 5 mph 1020.6mb -
2:36am 3 5 mph 1020.7mb -
2:30am 3 5 mph 1020.7mb 57f
2:24am 5 6 mph 1020.7mb 57f
2:18am 6 7 mph 1020.7mb 57f
2:12am 5 7 mph 1020.7mb 57f
2:06am 6 8 mph 1020.7mb 58f
2:00am 6 9 mph 1020.7mb 58f
1:54am 8 10 mph 1020.8mb 59f
1:48am 7 9 mph 1020.8mb 59f
1:42am 7 8 mph 1020.8mb 59f
1:36am 6 9 mph 1020.8mb 59f
1:30am 6 9 mph 1020.7mb 59f
1:24am 7 9 mph 1020.8mb 59f
1:18am 7 10 mph 1020.8mb 59f
1:12am 7 10 mph 1020.8mb 59f
1:06am 7 10 mph 1020.8mb 59f
1:00am 8 10 mph 1020.8mb 59f
12:54am 6 8 mph 1020.9mb 58f
12:48am 6 7 mph 1020.9mb 58f
12:42am 6 8 mph 1020.9mb 59f
12:36am 6 8 mph 1020.9mb 59f
12:30am 5 6 mph 1020.9mb 59f
12:24am 5 6 mph 1020.9mb 59f
12:18am 5 6 mph 1020.9mb 60f
12:12am 3
mph
1020.9mb 60f
12:06am 3
mph
1021mb 60f
12:00am 2 3 mph 1021.1mb 60f
Wed 03/25 11:54pm 2 3 mph 1021.1mb 60f
11:48pm 3 5 mph 1021.2mb -
11:42pm 3 5 mph 1021.2mb -
11:36pm 3 8 mph 1021.2mb -
11:30pm 7 9 mph 1021.2mb 61f
11:24pm 8 9 mph 1021.2mb 61f
11:18pm 6 8 mph 1021.2mb 61f
11:12pm 5 6 mph 1021.2mb 61f
11:06pm 3 6 mph 1021.2mb 61f
11:00pm 5 7 mph 1021.2mb 61f
10:54pm 5 6 mph 1021.2mb 61f
10:48pm 3 5 mph 1021.2mb 60f
10:42pm 2 3 mph 1021.2mb 60f
10:36pm 3 5 mph 1021.1mb 60f
10:30pm 3 6 mph 1021.1mb 62f
10:24pm 5 6 mph 1021.1mb 62f
10:18pm 6 8 mph 1021.1mb 62f
10:12pm 7 9 mph 1021.2mb 62f
10:06pm 8 10 mph 1021.2mb 62f
10:00pm 8 9 mph 1021.2mb 62f
9:54pm 7 8 mph 1021.2mb 62f
9:48pm 6 8 mph 1021.2mb 63f
9:42pm 6 7 mph 1021.2mb 63f
9:36pm 5 7 mph 1021.3mb 63f
9:30pm 5 8 mph 1021.3mb 63f
9:24pm 6 7 mph 1021.2mb 63f
9:18pm 5 8 mph 1021.2mb 63f
9:12pm 5 8 mph 1021.3mb 63f
9:06pm 6 7 mph 1021.3mb 63f
9:00pm 6 7 mph 1021.3mb 63f
8:54pm 5 7 mph 1021.3mb 64f
8:48pm 6 7 mph 1021.2mb 64f
8:42pm 6 8 mph 1021.2mb 64f
8:36pm 6 7 mph 1021.1mb 64f
8:30pm 5 7 mph 1021.1mb 65f
8:24pm 6 8 mph 1021mb 65f
8:18pm 6 8 mph 1020.9mb 65f
8:12pm 6 8 mph 1020.9mb 65f
8:06pm 6 8 mph 1020.8mb 65f
8:00pm 6 9 mph 1020.8mb 65f
7:54pm 7 10 mph 1020.7mb 65f
7:48pm 7 9 mph 1020.7mb 66f
7:42pm 6 9 mph 1020.7mb 66f
7:36pm 6 8 mph 1020.7mb 66f
7:30pm 6 8 mph 1020.7mb 67f
7:24pm 6 8 mph 1020.7mb 67f
7:18pm 6 8 mph 1020.7mb 67f
7:12pm 7 11 mph 1020.8mb 68f
7:06pm 8 13 mph 1020.8mb 68f
7:00pm 9 13 mph 1020.7mb 68f
6:54pm 10 13 mph 1020.7mb 68f
6:48pm 10 13 mph 1020.7mb 68f
6:42pm 9 13 mph 1020.6mb 68f
6:36pm 10 14 mph 1020.6mb 68f
6:30pm 9 14 mph 1020.5mb 69f
6:24pm 9 13 mph 1020.5mb 69f
6:18pm 9 11 mph 1020.4mb 69f
6:12pm 9 13 mph 1020.4mb 70f
6:06pm 9 14 mph 1020.4mb 70f
6:00pm 8 13 mph 1020.4mb 69f
5:54pm 10 13 mph 1020.4mb 69f
5:48pm 9 13 mph 1020.4mb 69f
5:42pm 11 14 mph 1020.4mb 69f
5:36pm 9 14 mph 1020.4mb 69f
5:30pm 9 13 mph 1020.4mb 69f
5:24pm 10 13 mph 1020.4mb 69f
5:18pm 10 11 mph 1020.5mb 69f
5:12pm 8 11 mph 1020.4mb 70f
5:06pm 9 11 mph 1020.4mb 70f
5:00pm 8 10 mph 1020.5mb 70f
4:54pm 8 10 mph 1020.5mb 70f
4:48pm 8 9 mph 1020.5mb 70f
4:42pm 7 10 mph 1020.5mb 71f
4:36pm 5 6 mph 1020.6mb 74f
4:30pm 6 7 mph 1020.7mb 74f
4:24pm 6 8 mph 1020.7mb 72f
4:18pm 6
mph
1020.7mb 73f
4:12pm 6
mph
1020.8mb 73f
4:06pm 6
mph
1020.9mb 72f
4:00pm 6 7 mph 1020.9mb 72f
3:54pm 6 7 mph 1021mb 73f
3:48pm 5 6 mph 1021mb 73f
3:42pm 5 6 mph 1021.1mb 72f
3:36pm 5 6 mph 1021.2mb 71f
3:30pm 3 6 mph 1021.3mb 73f
3:24pm 6
mph
1021.3mb 71f
3:18pm 3 5 mph 1021.4mb 72f
3:12pm 5 6 mph 1021.5mb 70f
3:06pm 5 6 mph 1021.5mb 70f
3:00pm 6 7 mph 1021.6mb 70f
2:54pm 6 7 mph 1021.7mb 70f
2:48pm 6 7 mph 1021.8mb 69f
2:42pm 6 7 mph 1021.9mb 69f
2:36pm 5 7 mph 1022mb 69f
2:30pm 5 7 mph 1022.1mb 68f
2:24pm 6 7 mph 1022.2mb 68f
2:18pm 6 7 mph 1022.2mb 67f
2:12pm 6
mph
1022.3mb 68f
2:06pm 3 6 mph 1022.5mb 68f
2:00pm 5 6 mph 1022.6mb 66f
1:48pm 6 7 mph 1022.8mb 65f
1:30pm 3 6 mph 1023.1mb 67f
1:24pm 3 5 mph 1023.2mb 66f
1:18pm 3 5 mph 1023.3mb 66f
1:12pm 5 6 mph 1023.4mb 65f
1:06pm 3 6 mph 1023.4mb 65f
1:00pm 3 6 mph 1023.4mb 64f
12:54pm 5 6 mph 1023.4mb 64f
12:48pm 2 5 mph 1023.4mb 64f
12:42pm 3 5 mph 1023.4mb 64f
12:36pm 3 5 mph 1023.5mb 63f
12:30pm 3 5 mph 1023.6mb 61f
12:24pm 3 6 mph 1023.7mb 61f
12:18pm 3 6 mph 1023.7mb 62f
12:12pm 5 6 mph 1023.8mb 61f
12:06pm 5 7 mph 1023.9mb 61f
12:00pm 5 6 mph 1023.8mb 62f
11:54am 5 7 mph 1023.9mb 61f
11:48am 5 7 mph 1023.9mb 60f
11:42am 6 7 mph 1023.9mb 60f
11:36am 6 8 mph 1024mb 59f
11:30am 6 7 mph 1024.1mb 59f
11:24am 5 6 mph 1024.1mb 60f
11:18am 5 6 mph 1024mb 59f
11:12am 5 6 mph 1024mb 59f
11:06am 5 6 mph 1024.1mb 59f
11:00am 5 6 mph 1024.1mb 58f
10:54am 5 6 mph 1024.1mb 59f
10:48am 5 6 mph 1024.1mb 60f
10:42am 5 6 mph 1024.1mb 58f
10:36am 5 6 mph 1024mb 58f
10:30am 3 5 mph 1024mb 58f
10:24am 3 6 mph 1024mb 58f
10:18am 3 5 mph 1023.9mb 58f
10:12am 5 6 mph 1023.9mb 58f
10:06am 5 6 mph 1024mb 58f
10:00am 3 7 mph 1024mb 58f
9:54am 5 7 mph 1024mb 57f
9:48am 7 8 mph 1023.9mb 57f
9:42am 7 8 mph 1023.8mb 57f
9:36am 6 9 mph 1023.8mb 57f
9:30am 5 6 mph 1023.7mb 57f
9:24am 5 6 mph 1023.7mb 57f
9:18am 5 7 mph 1023.7mb 57f
9:12am 6 8 mph 1023.7mb 57f
9:06am 6 8 mph 1023.6mb 56f
9:00am 6 9 mph 1023.5mb 57f
8:54am 6 8 mph 1023.5mb 57f
8:48am 5 6 mph 1023.4mb 58f
8:42am 2 5 mph 1023.3mb 57f
8:36am 5 6 mph 1023.3mb 56f
8:30am 6 7 mph 1023.2mb 56f
8:24am 6 7 mph 1023.2mb 55f
8:18am 7 8 mph 1023.2mb 55f
8:12am 7 8 mph 1023.2mb 55f
8:06am 7 8 mph 1023.1mb 55f
8:00am 6 7 mph 1023.1mb 55f
7:54am 7 8 mph 1023.1mb 55f
7:48am 8
mph
1023mb 55f
7:42am 7 8 mph 1023.1mb 55f
7:36am 7
mph
1023.1mb 55f
7:30am 7 8 mph 1023.1mb 55f
7:24am 6 8 mph 1023.1mb 55f
7:18am 7 8 mph 1023mb 54f
7:12am 6 7 mph 1023mb 55f
7:06am 5 7 mph 1022.9mb 55f
7:00am 6 7 mph 1022.9mb 55f
6:54am 5 6 mph 1022.9mb 55f
6:48am 3 5 mph 1022.8mb 55f
6:42am 3 7 mph 1022.8mb 56f
6:36am 6 7 mph 1022.8mb 56f
6:30am 6 8 mph 1022.7mb 56f
6:24am 5 6 mph 1022.7mb 55f
6:18am 5 6 mph 1022.7mb 56f
6:12am 3 6 mph 1022.7mb 56f
6:06am 5 6 mph 1022.7mb 56f
6:00am 3 5 mph 1022.7mb 56f
5:54am 3 6 mph 1022.6mb 55f
5:48am 5 7 mph 1022.6mb 56f
5:42am 3 5 mph 1022.7mb 56f
5:36am 2 5 mph 1022.7mb 56f
5:30am 3 6 mph 1022.7mb 55f
5:24am 2 3 mph 1022.6mb 56f
5:18am 3
mph
1022.7mb 56f
5:12am 2 3 mph 1022.7mb 55f
5:06am 3 6 mph 1022.7mb 55f
5:00am 3 6 mph 1022.8mb 55f
4:54am 3 6 mph 1022.8mb 56f
4:48am 5 6 mph 1022.8mb 55f
4:42am 6 7 mph 1022.7mb 56f
4:36am 5 6 mph 1022.7mb 56f
4:30am 2 3 mph 1022.8mb 56f
4:24am  -  2 mph 1022.8mb 56f
4:18am 2 5 mph 1022.8mb 56f
4:12am 2 3 mph 1022.9mb 56f
4:06am 1 2 mph 1022.8mb 56f
4:00am 2 3 mph 1022.8mb 56f
3:54am 1 2 mph 1022.8mb 56f
3:48am 2 3 mph 1022.9mb 56f
3:42am 2 3 mph 1023mb 57f
3:36am 2 3 mph 1023.1mb 57f
3:30am 3 5 mph 1023mb 57f
3:24am 3 5 mph 1023mb 57f
3:18am 2
mph
1023mb 57f
3:12am 1 3 mph 1023.1mb 57f
3:06am 3
mph
1023.1mb 57f
3:00am 2 3 mph 1023mb 57f
2:54am 2 5 mph 1023mb 57f
2:48am 5
mph
1023mb -
2:42am 6 7 mph 1023mb -
2:36am 6
mph
1023mb -
2:30am 5
mph
1023.1mb 57f
2:24am 2 3 mph 1023.1mb 57f
2:18am 3 5 mph 1023.1mb 57f
2:12am 5 6 mph 1023.1mb 57f
2:06am 5 9 mph 1023.1mb 57f
2:00am 7 9 mph 1023.2mb 57f
1:54am 9 11 mph 1023.3mb 58f
1:48am 7 10 mph 1023.3mb 59f
1:42am 9 11 mph 1023.4mb 59f
1:36am 8 10 mph 1023.3mb 58f
1:30am 6 9 mph 1023.4mb 59f
1:24am 6 9 mph 1023.4mb 58f
1:18am 7 9 mph 1023.5mb 58f
1:12am 6 8 mph 1023.5mb 59f
1:06am 7 9 mph 1023.6mb 59f
1:00am 8 10 mph 1023.7mb 59f
12:54am 8 10 mph 1023.8mb 59f
12:48am 7 9 mph 1023.8mb 59f
12:42am 8 10 mph 1023.7mb 59f
12:36am 9 10 mph 1023.8mb 59f
12:30am 10 11 mph 1023.9mb 59f
12:24am 8 10 mph 1024mb 59f
12:18am 8 10 mph 1024.1mb 59f
12:12am 8 13 mph 1024.2mb 59f
12:06am 9 13 mph 1024.3mb 59f
12:00am 7 11 mph 1024.3mb 59f
Tue 03/24 11:54pm 10 13 mph 1024.3mb 59f
11:48pm 11 14 mph 1024.4mb 59f
11:42pm 13 16 mph 1024.3mb 59f
11:36pm 13 17 mph 1024.4mb 59f
11:30pm 14 17 mph 1024.4mb 59f
11:24pm 13 15 mph 1024.4mb 59f
11:18pm 13 15 mph 1024.4mb 59f
11:12pm 11 16 mph 1024.3mb 59f
11:06pm 14 17 mph 1024.3mb 59f
11:00pm 11 16 mph 1024.4mb 59f
10:54pm 14 16 mph 1024.3mb 59f
10:48pm 11 17 mph 1024.3mb 60f
10:42pm 14 17 mph 1024.2mb 60f
10:36pm 11 15 mph 1024.2mb 60f
10:30pm 11 15 mph 1024.2mb 60f
10:24pm 8 10 mph 1024.3mb 60f
10:18pm 6 8 mph 1024.3mb 60f
10:12pm 3 6 mph 1024.3mb 60f
10:06pm 5 7 mph 1024.3mb 60f
10:00pm 5 8 mph 1024.3mb 60f
9:54pm 6 9 mph 1024.2mb 60f
9:48pm 7 10 mph 1024.2mb 60f
9:42pm 7 9 mph 1024.3mb 60f
9:36pm 7 10 mph 1024.2mb 60f
9:30pm 7 9 mph 1024.2mb 60f
9:24pm 7 9 mph 1024.3mb 60f
9:18pm 6 7 mph 1024.2mb 60f
9:12pm 5 7 mph 1024.2mb 60f
9:06pm 5 7 mph 1024.2mb 60f
9:00pm 5 8 mph 1024.1mb 60f
8:54pm 6 9 mph 1024.1mb 61f
8:48pm 6 10 mph 1024mb 61f
8:42pm 7 10 mph 1024mb 61f
8:36pm 9 13 mph 1023.9mb 61f
8:30pm 7 9 mph 1023.9mb 61f
8:24pm 7 9 mph 1023.8mb 62f
8:18pm 8 13 mph 1023.8mb 62f
8:12pm 10 14 mph 1023.7mb 61f
8:06pm 9 13 mph 1023.8mb 62f
8:00pm 8 13 mph 1023.6mb 62f
7:54pm 10 14 mph 1023.5mb 62f
7:48pm 9 14 mph 1023.5mb 62f
7:42pm 9 13 mph 1023.4mb 62f
7:30pm 9 14 mph 1023.3mb 63f
7:24pm 9 13 mph 1023.3mb 63f
7:18pm 8 13 mph 1023.4mb 63f
7:12pm 9 13 mph 1023.3mb 64f
7:06pm 8 11 mph 1023.2mb 64f
7:00pm 8 10 mph 1023.2mb 64f
6:54pm 8 9 mph 1023.2mb 64f
6:48pm 6 8 mph 1023.2mb 64f
6:42pm 6 10 mph 1023.1mb 64f
6:36pm 8 10 mph 1023.1mb 64f
6:30pm 6 9 mph 1023.1mb 64f
6:24pm 5 9 mph 1023.2mb 64f
6:18pm 8 10 mph 1023.2mb 64f
6:12pm 7 10 mph 1023.1mb 64f
6:06pm 6 10 mph 1023.1mb 65f
6:00pm 8 11 mph 1023.2mb 64f
5:54pm 8 11 mph 1023.2mb 64f
5:48pm 8 11 mph 1023.1mb 64f
5:42pm 8 10 mph 1023.2mb 64f
5:36pm 8 10 mph 1023.3mb 64f
5:30pm 7 11 mph 1023.2mb 64f
5:24pm 8 14 mph 1023.2mb 65f
5:18pm 9 14 mph 1023.1mb 65f
5:12pm 8 14 mph 1023.2mb 65f
5:06pm 9 13 mph 1023.2mb 65f
5:00pm 9 14 mph 1023.2mb 65f
4:54pm 8 13 mph 1023.3mb 65f